createdAt,value
2024-02-26T00:04:42.989Z,50.23
2024-02-26T00:09:45.832Z,50.39
2024-02-26T00:14:50.667Z,50.61
2024-02-26T00:19:55.140Z,50.78
2024-02-26T00:24:57.978Z,50.75
2024-02-26T00:30:00.873Z,51.02
2024-02-26T00:35:05.454Z,51.02
2024-02-26T00:40:10.017Z,51.08
2024-02-26T00:45:12.865Z,51.08
2024-02-26T00:50:17.594Z,51.26
2024-02-26T00:55:20.439Z,51.49
2024-02-26T01:00:23.531Z,51.58
2024-02-26T01:05:27.793Z,51.60
2024-02-26T01:10:30.657Z,52.07
2024-02-26T01:15:33.448Z,51.90
2024-02-26T01:20:37.930Z,52.06
2024-02-26T01:25:41.062Z,52.26
2024-02-26T01:30:44.006Z,52.53
2024-02-26T01:35:48.676Z,52.59
2024-02-26T01:40:51.620Z,52.41
2024-02-26T01:45:54.774Z,52.79
2024-02-26T01:50:59.257Z,52.58
2024-02-26T01:56:02.406Z,52.75
2024-02-26T02:01:05.537Z,52.70
2024-02-26T02:06:09.833Z,52.90
2024-02-26T02:11:13.714Z,53.00
2024-02-26T02:16:16.586Z,53.17
2024-02-26T02:21:20.819Z,52.94
2024-02-26T02:26:23.781Z,53.29
2024-02-26T02:31:26.611Z,53.35
2024-02-26T02:36:30.877Z,53.31
2024-02-26T02:41:33.759Z,53.04
2024-02-26T02:46:36.555Z,53.23
2024-02-26T02:51:40.778Z,53.30
2024-02-26T02:56:43.663Z,53.36
2024-02-26T03:01:46.478Z,53.62
2024-02-26T03:06:50.721Z,53.37
2024-02-26T03:11:53.723Z,53.36
2024-02-26T03:16:56.935Z,53.37
2024-02-26T03:22:01.107Z,53.58
2024-02-26T03:27:06.095Z,53.67
2024-02-26T03:32:08.974Z,53.91
2024-02-26T03:37:13.214Z,53.74
2024-02-26T03:42:17.550Z,53.86
2024-02-26T03:47:20.418Z,53.87
2024-02-26T03:52:24.624Z,54.14
2024-02-26T04:04:25.291Z,54.06
2024-02-26T04:09:29.537Z,54.17
2024-02-26T04:14:32.376Z,54.40
2024-02-26T04:19:35.333Z,54.45
2024-02-26T04:24:39.758Z,54.63
2024-02-26T04:29:42.615Z,54.16
2024-02-26T04:34:45.412Z,54.17
2024-02-26T04:39:51.269Z,53.78
2024-02-26T04:44:54.265Z,54.12
2024-02-26T04:49:57.177Z,54.56
2024-02-26T04:55:01.549Z,54.86
2024-02-26T05:00:06.118Z,54.80
2024-02-26T05:05:10.205Z,54.85
2024-02-26T05:10:14.493Z,54.83
2024-02-26T05:15:19.639Z,54.91
2024-02-26T05:20:22.769Z,54.87
2024-02-26T05:25:27.023Z,55.10
2024-02-26T05:30:30.299Z,55.04
2024-02-26T05:35:33.178Z,55.24
2024-02-26T05:40:37.750Z,55.05
2024-02-26T05:45:40.816Z,55.13
2024-02-26T05:50:43.749Z,55.31
2024-02-26T05:55:47.979Z,55.13
2024-02-26T06:00:51.066Z,55.27
2024-02-26T06:05:54.138Z,55.41
2024-02-26T06:10:58.426Z,55.42
2024-02-26T06:16:01.219Z,55.27
2024-02-26T06:21:04.302Z,55.37
2024-02-26T06:26:08.540Z,55.46
2024-02-26T06:31:11.347Z,55.24
2024-02-26T06:36:14.185Z,55.27
2024-02-26T06:41:18.376Z,55.13
2024-02-26T06:46:21.220Z,55.25
2024-02-26T06:51:24.326Z,55.03
2024-02-26T06:56:29.416Z,55.15
2024-02-26T07:01:32.511Z,54.96
2024-02-26T07:06:35.404Z,54.88
2024-02-26T07:11:40.639Z,54.99
2024-02-26T07:16:43.456Z,54.76
2024-02-26T07:21:46.257Z,54.60
2024-02-26T07:26:50.510Z,54.77
2024-02-26T07:31:53.273Z,54.49
2024-02-26T07:36:56.120Z,54.49
2024-02-26T07:42:00.473Z,54.25
2024-02-26T07:47:04.022Z,54.48
2024-02-26T07:52:07.134Z,40.67
2024-02-26T07:57:11.360Z,40.99
2024-02-26T08:02:14.120Z,41.31
2024-02-26T08:07:17.951Z,41.94
2024-02-26T08:12:22.380Z,41.77
2024-02-26T08:17:25.358Z,42.08
2024-02-26T08:22:28.191Z,42.28
2024-02-26T08:27:32.415Z,42.46
2024-02-26T08:32:35.224Z,42.91
2024-02-26T08:37:38.056Z,43.01
2024-02-26T08:42:42.244Z,43.82
2024-02-26T08:47:46.874Z,43.90
2024-02-26T08:52:51.903Z,44.47
2024-02-26T08:57:56.122Z,44.68
2024-02-26T09:03:00.678Z,44.89
2024-02-26T09:08:05.244Z,45.11
2024-02-26T09:13:09.430Z,45.26
2024-02-26T09:18:12.407Z,45.50
2024-02-26T09:23:15.411Z,45.74
2024-02-26T09:28:19.563Z,46.01
2024-02-26T09:33:23.298Z,45.99
2024-02-26T09:38:26.345Z,45.91
2024-02-26T09:43:31.048Z,46.00
2024-02-26T09:48:34.812Z,46.29
2024-02-26T09:53:40.596Z,46.32
2024-02-26T09:58:46.744Z,46.44
2024-02-26T10:03:52.886Z,46.20
2024-02-26T10:08:56.630Z,46.19
2024-02-26T10:14:00.961Z,46.41
2024-02-26T10:19:03.985Z,46.12
2024-02-26T10:24:07.160Z,46.38
2024-02-26T10:29:11.358Z,46.13
2024-02-26T10:34:14.287Z,46.23
2024-02-26T10:39:17.331Z,46.14
2024-02-26T10:44:21.609Z,46.27
2024-02-26T10:49:25.004Z,46.20
2024-02-26T10:54:29.726Z,46.04
2024-02-26T10:59:34.011Z,45.94
2024-02-26T11:04:36.910Z,46.03
2024-02-26T11:09:44.672Z,45.93
2024-02-26T11:14:49.985Z,46.03
2024-02-26T11:19:54.829Z,46.05
2024-02-26T11:24:58.617Z,45.88
2024-02-26T11:30:03.558Z,45.91
2024-02-26T11:35:08.453Z,45.83
2024-02-26T11:40:13.816Z,45.90
2024-02-26T11:46:00.485Z,45.94
2024-02-26T11:51:04.052Z,45.74
2024-02-26T11:56:27.345Z,45.90
2024-02-26T12:01:43.446Z,45.65
2024-02-26T12:06:47.971Z,45.62
2024-02-26T12:11:51.036Z,45.38
2024-02-26T12:16:55.294Z,45.53
2024-02-26T12:21:58.283Z,45.98
2024-02-26T12:27:01.386Z,46.19
2024-02-26T12:32:08.304Z,46.21
2024-02-26T12:37:11.728Z,46.23
2024-02-26T12:42:14.572Z,46.43
2024-02-26T12:47:19.568Z,46.51
2024-02-26T12:52:22.937Z,46.50
2024-02-26T12:57:26.463Z,46.32
2024-02-26T13:02:31.495Z,46.27
2024-02-26T13:07:34.416Z,46.50
2024-02-26T13:12:37.475Z,39.56
2024-02-26T13:17:41.834Z,38.72
2024-02-26T13:22:44.741Z,38.41
2024-02-26T13:27:47.561Z,38.38
2024-02-26T13:32:51.813Z,38.71
2024-02-26T13:37:54.934Z,38.52
2024-02-26T13:42:59.041Z,38.59
2024-02-26T13:48:04.257Z,39.01
2024-02-26T13:53:07.295Z,38.76
2024-02-26T13:58:10.488Z,38.63
2024-02-26T14:03:14.745Z,38.59
2024-02-26T14:08:17.782Z,38.93
2024-02-26T14:13:20.681Z,39.85
2024-02-26T14:18:25.556Z,40.20
2024-02-26T14:23:28.850Z,40.68
2024-02-26T14:28:36.543Z,41.49
2024-02-26T14:33:41.780Z,41.88
2024-02-26T14:38:46.018Z,42.11
2024-02-26T14:43:48.831Z,42.42
2024-02-26T14:48:53.112Z,42.48
2024-02-26T14:53:56.223Z,43.23
2024-02-26T14:58:59.235Z,43.12
2024-02-26T15:04:05.103Z,43.30
2024-02-26T15:09:08.909Z,43.30
2024-02-26T15:14:11.831Z,42.36
2024-02-26T15:19:17.849Z,43.69
2024-02-26T15:24:21.046Z,44.55
2024-02-26T15:29:23.933Z,45.25
2024-02-26T15:34:28.188Z,44.88
2024-02-26T15:39:31.256Z,45.17
2024-02-26T15:44:34.071Z,45.56
2024-02-26T15:49:38.497Z,45.58
2024-02-26T15:54:41.721Z,45.71
2024-02-26T15:59:44.714Z,45.83
2024-02-26T16:04:49.369Z,46.35
2024-02-26T16:09:53.295Z,46.63
2024-02-26T16:14:57.031Z,47.08
2024-02-26T16:20:01.535Z,47.51
2024-02-26T16:25:05.012Z,47.54
2024-02-26T16:30:08.961Z,48.03
2024-02-26T16:35:13.259Z,48.24
2024-02-26T16:40:17.601Z,48.40
2024-02-26T16:45:21.771Z,48.53
2024-02-26T16:50:27.429Z,48.42
2024-02-26T16:55:30.501Z,48.67
2024-02-26T17:00:33.518Z,48.46
2024-02-26T17:05:37.812Z,48.75
2024-02-26T17:10:40.711Z,49.11
2024-02-26T17:15:43.505Z,50.92
2024-02-26T17:20:47.673Z,51.53
2024-02-26T17:25:50.737Z,52.06
2024-02-26T17:30:53.583Z,51.72
2024-02-26T17:35:57.838Z,51.36
2024-02-26T17:41:00.892Z,51.32
2024-02-26T17:46:03.829Z,50.84
2024-02-26T17:51:08.310Z,50.39
2024-02-26T17:56:11.389Z,49.87
2024-02-26T18:01:14.339Z,49.66
2024-02-26T18:06:18.645Z,49.21
2024-02-26T18:11:21.580Z,49.20
2024-02-26T18:16:24.626Z,48.85
2024-02-26T18:21:28.952Z,48.70
2024-02-26T18:26:31.816Z,48.57
2024-02-26T18:31:34.662Z,48.63
2024-02-26T18:36:38.950Z,48.38
2024-02-26T18:41:41.814Z,48.32
2024-02-26T18:46:46.505Z,48.28
2024-02-26T18:51:50.699Z,48.06
2024-02-26T18:56:53.600Z,48.18
2024-02-26T19:01:56.429Z,47.95
2024-02-26T19:07:00.641Z,47.96
2024-02-26T19:12:03.677Z,47.96
2024-02-26T19:17:06.692Z,47.69
2024-02-26T19:22:13.297Z,47.61
2024-02-26T19:27:17.175Z,47.81
2024-02-26T19:32:20.032Z,47.56
2024-02-26T19:44:22.531Z,47.22
2024-02-26T19:49:25.433Z,47.38
2024-02-26T19:54:28.346Z,47.40
2024-02-26T19:59:32.554Z,47.23
2024-02-26T20:04:35.930Z,47.15
2024-02-26T20:09:39.610Z,46.92
2024-02-26T20:14:45.812Z,46.99
2024-02-26T20:19:48.834Z,46.85
2024-02-26T20:24:51.762Z,46.94
2024-02-26T20:29:57.834Z,46.89
2024-02-26T20:35:00.794Z,46.71
2024-02-26T20:40:07.097Z,46.68
2024-02-26T20:45:11.754Z,46.69
2024-02-26T20:50:14.642Z,46.85
2024-02-26T20:55:17.444Z,46.48
2024-02-26T21:00:22.284Z,46.65
2024-02-26T21:05:25.270Z,46.53
2024-02-26T21:10:30.553Z,46.61
2024-02-26T21:15:34.834Z,46.50
2024-02-26T21:20:37.674Z,46.48
2024-02-26T21:25:40.541Z,46.33
2024-02-26T21:30:44.853Z,46.44
2024-02-26T21:35:47.775Z,46.58
2024-02-26T21:40:50.631Z,46.11
2024-02-26T21:45:54.773Z,46.30
2024-02-26T21:50:57.615Z,46.51
2024-02-26T21:56:00.813Z,46.42
2024-02-26T22:01:05.669Z,46.56
2024-02-26T22:06:10.463Z,46.52
2024-02-26T22:11:13.401Z,46.40
2024-02-26T22:16:17.742Z,46.65
2024-02-26T22:21:20.575Z,46.69
2024-02-26T22:26:23.468Z,46.56
2024-02-26T22:31:28.835Z,46.80
2024-02-26T22:36:33.820Z,46.76
2024-02-26T22:41:41.601Z,46.81
2024-02-26T22:46:45.824Z,46.98
2024-02-26T22:51:49.777Z,46.82
2024-02-26T22:56:52.607Z,46.81
2024-02-26T23:01:56.811Z,47.01
2024-02-26T23:07:00.343Z,47.10
2024-02-26T23:12:03.243Z,47.20
2024-02-26T23:17:07.516Z,47.28
2024-02-26T23:22:10.364Z,47.62
2024-02-26T23:27:13.202Z,47.73
2024-02-26T23:32:17.343Z,48.01
2024-02-26T23:37:20.077Z,47.97
2024-02-26T23:42:23.028Z,48.29
2024-02-26T23:47:28.234Z,48.49
2024-02-26T23:52:31.066Z,48.81
2024-02-26T23:57:34.013Z,48.95
